Time;durP1;ratioP1;P1;durP2;ratioP2;P2;SDS_P1;SDS_P2;PMS_P1;PMS_P2;Temp;Humidity;BMP_temperature;BMP_pressure;BME280_temperature;BME280_humidity;BME280_pressure;Samples;Min_cycle;Max_cycle;Signal;HPM_P1;HPM_P2
2021/05/15 00:00:10;;;;;;;13.20;8.80;;;9.10;99.90;;;;;;5003056;28;20046;-68
2021/05/15 00:02:37;;;;;;;18.52;11.00;;;9.10;99.90;;;;;;5001070;28;20038;-69
2021/05/15 00:05:07;;;;;;;14.88;8.98;;;9.10;99.90;;;;;;5000830;28;20047;-68
2021/05/15 00:07:34;;;;;;;13.07;9.52;;;9.20;99.90;;;;;;5002580;28;20039;-68
2021/05/15 00:10:00;;;;;;;17.45;9.15;;;9.10;99.90;;;;;;5001905;28;20106;-68
2021/05/15 00:12:26;;;;;;;11.75;9.25;;;9.20;99.90;;;;;;5007069;28;20177;-68
2021/05/15 00:14:54;;;;;;;12.38;8.95;;;9.10;99.90;;;;;;5006607;28;20559;-68
2021/05/15 00:17:20;;;;;;;10.88;8.52;;;9.10;99.90;;;;;;5006758;28;20053;-68
2021/05/15 00:19:46;;;;;;;13.73;8.45;;;9.10;99.90;;;;;;5006110;28;20054;-68
2021/05/15 00:22:11;;;;;;;14.43;8.95;;;9.10;99.90;;;;;;5006716;28;20054;-68
2021/05/15 00:24:37;;;;;;;16.80;9.35;;;9.00;99.90;;;;;;4996251;28;20045;-68
2021/05/15 00:27:03;;;;;;;12.40;8.18;;;8.90;99.90;;;;;;5003180;28;20049;-68
2021/05/15 00:29:29;;;;;;;13.52;8.23;;;8.90;99.90;;;;;;5006603;28;20053;-68
2021/05/15 00:31:55;;;;;;;17.50;8.75;;;8.80;99.90;;;;;;5006492;28;20046;-68
2021/05/15 00:34:21;;;;;;;14.98;9.13;;;8.70;99.90;;;;;;4996260;28;20046;-68
2021/05/15 00:36:48;;;;;;;12.95;8.55;;;8.70;99.90;;;;;;5006202;28;20569;-68
2021/05/15 00:39:17;;;;;;;14.00;8.23;;;8.70;99.90;;;;;;5005781;28;20065;-68
2021/05/15 00:41:45;;;;;;;19.35;9.75;;;8.60;99.90;;;;;;5002446;28;20052;-68
2021/05/15 00:44:18;;;;;;;16.85;9.15;;;8.60;99.90;;;;;;5005707;28;20132;-68
2021/05/15 00:46:45;;;;;;;16.73;9.57;;;8.60;99.90;;;;;;5006330;28;20121;-68
2021/05/15 00:49:13;;;;;;;14.45;9.07;;;8.60;99.90;;;;;;5006113;28;20054;-68
2021/05/15 00:51:39;;;;;;;17.05;8.85;;;8.60;99.90;;;;;;5006070;28;20069;-68
2021/05/15 00:54:06;;;;;;;13.77;9.05;;;8.60;99.90;;;;;;5005330;28;20057;-68
2021/05/15 00:56:32;;;;;;;15.50;9.05;;;8.60;99.90;;;;;;5002215;28;20062;-68
2021/05/15 00:58:59;;;;;;;16.67;9.15;;;8.60;99.90;;;;;;5005943;28;20046;-68
2021/05/15 01:01:26;;;;;;;15.00;8.93;;;8.70;99.90;;;;;;5005911;28;20046;-67
2021/05/15 01:03:52;;;;;;;11.82;8.57;;;8.70;99.90;;;;;;5005724;28;20043;-67
2021/05/15 01:06:18;;;;;;;13.32;8.85;;;8.70;99.90;;;;;;5005577;28;20112;-68
2021/05/15 01:08:47;;;;;;;13.02;9.43;;;8.70;99.90;;;;;;5004775;28;20073;-69
2021/05/15 01:11:15;;;;;;;13.13;8.63;;;8.70;99.90;;;;;;5005590;28;20086;-69
2021/05/15 01:13:53;;;;;;;17.92;9.05;;;8.70;99.90;;;;;;5004926;28;20042;-68
2021/05/15 01:16:19;;;;;;;14.07;9.02;;;8.70;99.90;;;;;;5005593;28;20050;-68
2021/05/15 01:18:45;;;;;;;17.67;9.20;;;8.70;99.90;;;;;;5005197;28;20049;-68
2021/05/15 01:21:12;;;;;;;15.02;9.63;;;8.60;99.90;;;;;;5005187;28;20110;-69
2021/05/15 01:23:37;;;;;;;13.85;8.60;;;8.50;99.90;;;;;;5004908;28;20050;-68
2021/05/15 01:26:19;;;;;;;17.02;9.57;;;8.40;99.90;;;;;;5005888;28;20522;-68
2021/05/15 01:28:47;;;;;;;15.93;9.05;;;8.30;99.90;;;;;;5005352;28;20043;-68
2021/05/15 01:31:14;;;;;;;13.27;9.52;;;8.20;99.90;;;;;;5005398;28;20053;-68
2021/05/15 01:33:40;;;;;;;13.63;9.20;;;8.10;99.90;;;;;;5005065;28;20097;-68
2021/05/15 01:36:06;;;;;;;15.38;9.18;;;8.00;99.90;;;;;;5005208;28;20050;-68
2021/05/15 01:38:33;;;;;;;22.30;9.83;;;7.80;99.90;;;;;;5004601;28;20490;-68
2021/05/15 01:41:11;;;;;;;19.48;10.45;;;7.80;99.90;;;;;;5004090;28;20060;-68
2021/05/15 01:43:37;;;;;;;17.08;10.55;;;7.60;99.90;;;;;;5004354;28;20413;-68
2021/05/15 01:46:04;;;;;;;15.90;10.15;;;7.60;99.90;;;;;;5005197;28;20043;-68
2021/05/15 01:48:31;;;;;;;15.18;9.77;;;7.60;99.90;;;;;;5005305;28;20105;-68
2021/05/15 01:51:01;;;;;;;21.17;10.05;;;7.60;99.90;;;;;;5005080;28;20072;-68
2021/05/15 01:53:29;;;;;;;16.13;10.68;;;7.60;99.90;;;;;;5004896;28;20046;-68
2021/05/15 01:55:56;;;;;;;14.93;9.95;;;7.60;99.90;;;;;;4999171;28;20053;-68
2021/05/15 01:58:22;;;;;;;15.57;10.02;;;7.60;99.90;;;;;;4991315;28;20050;-68
2021/05/15 02:00:48;;;;;;;21.98;11.38;;;7.70;99.90;;;;;;4998404;28;20085;-68
2021/05/15 02:03:14;;;;;;;16.85;10.82;;;7.80;99.90;;;;;;5002310;28;20042;-68
2021/05/15 02:05:40;;;;;;;18.08;10.25;;;7.90;99.90;;;;;;4994255;28;20098;-68
2021/05/15 02:08:09;;;;;;;14.55;10.13;;;8.00;99.90;;;;;;5004529;28;20075;-68
2021/05/15 02:10:35;;;;;;;18.15;10.57;;;8.00;99.90;;;;;;5004090;28;20105;-68
2021/05/15 02:13:01;;;;;;;15.63;9.82;;;8.00;99.90;;;;;;5004394;28;20047;-68
2021/05/15 02:15:27;;;;;;;16.65;10.95;;;8.10;99.90;;;;;;4996535;28;20106;-68
2021/05/15 02:17:53;;;;;;;16.33;9.57;;;8.10;99.90;;;;;;5003824;28;20045;-68
2021/05/15 02:20:18;;;;;;;16.50;10.18;;;8.20;99.90;;;;;;5004124;28;20039;-68
2021/05/15 02:22:44;;;;;;;22.05;10.15;;;8.20;99.90;;;;;;5003196;28;20351;-68
2021/05/15 02:25:10;;;;;;;14.23;10.55;;;8.20;99.90;;;;;;5010767;28;20047;-68
2021/05/15 02:27:36;;;;;;;14.50;10.02;;;8.30;99.90;;;;;;5004316;28;20125;-68
2021/05/15 02:30:03;;;;;;;16.85;10.35;;;8.30;99.90;;;;;;5004599;28;20070;-68
2021/05/15 02:32:29;;;;;;;;;;;8.30;99.90;;;;;;5003438;28;20038;-68
2021/05/15 02:34:55;;;;;;;18.45;10.45;;;8.30;99.90;;;;;;4999333;28;19922;-68
2021/05/15 02:37:21;;;;;;;23.05;11.00;;;8.30;99.90;;;;;;5000736;28;20042;-68
2021/05/15 02:39:47;;;;;;;21.13;10.60;;;8.30;99.90;;;;;;5003149;28;20122;-68
2021/05/15 02:42:13;;;;;;;21.70;11.02;;;8.40;99.90;;;;;;5004314;28;20604;-68
2021/05/15 02:44:39;;;;;;;18.13;11.25;;;8.40;99.90;;;;;;5004004;28;20137;-68
2021/05/15 02:47:04;;;;;;;18.83;10.93;;;8.40;99.90;;;;;;5003477;28;20092;-68
2021/05/15 02:49:30;;;;;;;17.52;10.05;;;8.40;99.90;;;;;;5002382;28;20039;-68
2021/05/15 02:51:56;;;;;;;19.15;10.13;;;8.40;99.90;;;;;;5004356;28;20046;-69
2021/05/15 02:54:21;;;;;;;19.20;9.73;;;8.40;99.90;;;;;;5002276;28;20053;-69
2021/05/15 02:56:47;;;;;;;14.80;10.10;;;8.40;99.90;;;;;;5003486;28;20082;-69
2021/05/15 02:59:13;;;;;;;16.80;10.98;;;8.40;99.90;;;;;;5001835;28;20084;-69
2021/05/15 03:01:39;;;;;;;15.50;11.32;;;8.40;99.90;;;;;;5000147;28;20133;-68
2021/05/15 03:04:04;;;;;;;16.20;10.98;;;8.50;99.90;;;;;;4997142;28;20050;-68
2021/05/15 03:06:30;;;;;;;20.50;11.30;;;8.40;99.90;;;;;;4999613;28;20050;-68
2021/05/15 03:08:56;;;;;;;25.85;11.73;;;8.40;99.90;;;;;;5003010;28;20057;-68
2021/05/15 03:11:22;;;;;;;16.08;10.43;;;8.40;99.90;;;;;;5001363;28;20108;-67
2021/05/15 03:13:48;;;;;;;19.50;12.25;;;8.40;99.90;;;;;;4990214;28;20138;-68
2021/05/15 03:16:14;;;;;;;19.52;11.35;;;8.40;99.90;;;;;;5003311;28;20046;-67
2021/05/15 03:18:40;;;;;;;17.63;11.23;;;8.30;99.90;;;;;;5004077;28;20049;-67
2021/05/15 03:21:06;;;;;;;15.40;10.07;;;8.30;99.90;;;;;;5000997;28;20057;-68
2021/05/15 03:23:31;;;;;;;19.75;11.15;;;8.20;99.90;;;;;;5003193;28;20051;-68
2021/05/15 03:25:57;;;;;;;16.80;10.52;;;8.20;99.90;;;;;;5000416;28;20046;-68
2021/05/15 03:28:23;;;;;;;22.48;11.48;;;8.20;99.90;;;;;;5003232;28;20319;-67
2021/05/15 03:30:50;;;;;;;17.52;11.32;;;8.20;99.90;;;;;;5003521;28;20047;-68
2021/05/15 03:33:16;;;;;;;16.67;10.48;;;8.10;99.90;;;;;;5003369;28;20100;-67
2021/05/15 03:35:42;;;;;;;17.98;10.68;;;8.00;99.90;;;;;;4998555;28;20046;-67
2021/05/15 03:38:09;;;;;;;18.30;11.68;;;7.90;99.90;;;;;;5004411;28;20048;-68
2021/05/15 03:40:36;;;;;;;18.92;11.77;;;7.90;99.90;;;;;;5001607;28;20050;-68
2021/05/15 03:43:02;;;;;;;18.42;11.13;;;7.80;99.90;;;;;;5005956;28;20053;-68
2021/05/15 03:45:28;;;;;;;21.13;11.77;;;7.90;99.90;;;;;;5007352;28;20092;-68
2021/05/15 03:47:54;;;;;;;19.23;11.48;;;7.80;99.90;;;;;;5007239;28;20145;-68
2021/05/15 03:50:22;;;;;;;14.75;11.48;;;7.90;99.90;;;;;;5007614;28;20042;-68
2021/05/15 03:52:48;;;;;;;;;;;8.00;99.90;;;;;;5003724;28;20047;-68
2021/05/15 03:55:14;;;;;;;20.45;11.38;;;7.90;99.90;;;;;;4991413;28;19942;-68
2021/05/15 03:57:39;;;;;;;19.50;10.80;;;7.80;99.90;;;;;;5000451;28;20115;-68
2021/05/15 04:00:06;;;;;;;17.42;10.68;;;7.80;99.90;;;;;;5006600;28;20046;-68
2021/05/15 04:02:32;;;;;;;19.77;12.10;;;7.70;99.90;;;;;;5007054;28;20057;-68
2021/05/15 04:04:59;;;;;;;19.20;11.75;;;7.70;99.90;;;;;;5006959;28;20398;-68
2021/05/15 04:07:25;;;;;;;19.00;12.10;;;7.80;99.90;;;;;;5007468;28;20069;-68
2021/05/15 04:09:50;;;;;;;22.23;11.90;;;7.80;99.90;;;;;;5006216;28;20128;-68
2021/05/15 04:12:16;;;;;;;19.02;11.50;;;7.90;99.90;;;;;;5006803;28;20112;-68
2021/05/15 04:14:46;;;;;;;22.48;11.80;;;8.00;99.90;;;;;;5006684;28;20133;-68
2021/05/15 04:19:37;;;;;;;17.27;11.15;;;8.10;99.90;;;;;;5007247;28;20050;-68
2021/05/15 04:22:03;;;;;;;20.02;11.60;;;8.10;99.90;;;;;;5006567;28;20098;-68
2021/05/15 04:24:29;;;;;;;15.77;12.13;;;8.10;99.90;;;;;;5006082;28;20054;-68
2021/05/15 04:27:02;;;;;;;23.92;12.23;;;8.10;99.90;;;;;;5006385;28;20110;-68
2021/05/15 04:29:28;;;;;;;17.90;11.23;;;8.20;99.90;;;;;;5006221;28;20046;-68
2021/05/15 04:31:56;;;;;;;19.15;11.77;;;8.20;99.90;;;;;;5006885;28;20054;-68
2021/05/15 04:34:22;;;;;;;;;;;8.30;99.90;;;;;;5006830;28;20046;-68
2021/05/15 04:36:48;;;;;;;17.20;11.35;;;8.40;99.90;;;;;;5006433;28;19922;-68
2021/05/15 04:39:14;;;;;;;19.33;11.48;;;8.40;99.90;;;;;;5005576;28;20129;-68
2021/05/15 04:41:40;;;;;;;16.80;11.40;;;8.40;99.90;;;;;;5006384;28;20042;-68
2021/05/15 04:44:06;;;;;;;24.25;12.77;;;8.50;99.90;;;;;;5006330;28;20136;-68
2021/05/15 04:46:32;;;;;;;20.23;12.75;;;8.50;99.90;;;;;;5006189;28;20041;-68
2021/05/15 04:48:58;;;;;;;20.13;12.57;;;8.60;99.90;;;;;;5006173;28;20088;-68
2021/05/15 04:51:23;;;;;;;16.05;12.18;;;8.70;99.90;;;;;;5005918;28;20529;-68
2021/05/15 04:53:49;;;;;;;21.75;11.75;;;8.80;99.90;;;;;;4997842;28;20118;-68
2021/05/15 04:56:15;;;;;;;20.45;12.05;;;8.90;99.90;;;;;;5006212;28;20098;-68
2021/05/15 04:58:45;;;;;;;17.48;12.82;;;9.00;99.90;;;;;;5005689;28;20054;-68
2021/05/15 05:01:11;;;;;;;23.80;13.30;;;9.10;99.90;;;;;;5006033;28;20514;-68
2021/05/15 05:03:37;;;;;;;26.13;13.57;;;9.10;99.90;;;;;;4994344;28;20046;-68
2021/05/15 05:06:03;;;;;;;21.73;13.82;;;9.20;99.90;;;;;;5005880;28;20117;-68
2021/05/15 05:08:29;;;;;;;27.13;15.25;;;9.30;99.90;;;;;;5005498;28;20065;-68
2021/05/15 05:10:55;;;;;;;23.13;14.25;;;9.40;99.90;;;;;;5005891;28;20042;-68
2021/05/15 05:13:21;;;;;;;33.47;13.40;;;9.50;99.90;;;;;;4993872;28;20060;-68
2021/05/15 05:15:47;;;;;;;20.35;13.60;;;9.70;99.90;;;;;;5005601;28;20050;-68
2021/05/15 05:18:13;;;;;;;24.85;14.57;;;9.60;99.90;;;;;;5005411;28;20556;-68
2021/05/15 05:20:39;;;;;;;23.20;14.32;;;9.60;99.90;;;;;;5005742;28;20042;-68
2021/05/15 05:23:05;;;;;;;22.98;14.27;;;9.60;99.90;;;;;;4996496;28;20042;-68
2021/05/15 05:25:31;;;;;;;25.40;15.38;;;9.60;99.90;;;;;;4997009;28;20042;-68
2021/05/15 05:27:58;;;;;;;21.10;14.60;;;9.60;99.90;;;;;;5005304;28;20108;-68
2021/05/15 05:30:24;;;;;;;22.92;15.25;;;9.50;99.90;;;;;;5005138;28;20046;-68
2021/05/15 05:32:50;;;;;;;21.85;13.27;;;9.40;99.90;;;;;;5006003;28;20088;-68
2021/05/15 05:35:18;;;;;;;24.30;15.05;;;9.40;99.90;;;;;;5004902;28;20050;-68
2021/05/15 05:37:44;;;;;;;25.15;14.93;;;9.40;99.90;;;;;;5000748;28;20051;-68
2021/05/15 05:40:12;;;;;;;31.35;15.80;;;9.40;99.90;;;;;;4996645;28;20049;-68
2021/05/15 05:42:39;;;;;;;22.17;14.43;;;9.40;99.90;;;;;;5002044;28;20042;-68
2021/05/15 05:45:10;;;;;;;24.42;14.05;;;9.40;99.90;;;;;;4993679;28;20517;-68
2021/05/15 05:47:36;;;;;;;17.88;12.98;;;9.40;99.90;;;;;;5002065;28;20470;-68
2021/05/15 05:50:03;;;;;;;21.52;13.75;;;9.30;99.90;;;;;;5005083;28;20050;-68
2021/05/15 05:52:29;;;;;;;17.88;11.48;;;9.40;99.90;;;;;;5004313;28;20042;-68
2021/05/15 05:54:55;;;;;;;22.58;12.82;;;9.40;99.90;;;;;;4991648;28;20102;-68
2021/05/15 05:57:20;;;;;;;21.38;12.63;;;9.40;99.90;;;;;;5005337;28;20065;-68
2021/05/15 05:59:46;;;;;;;25.15;13.63;;;9.40;99.90;;;;;;5004386;28;20046;-68
2021/05/15 06:02:12;;;;;;;22.08;14.05;;;9.50;99.90;;;;;;5004696;28;20057;-68
2021/05/15 06:04:38;;;;;;;25.20;14.85;;;9.50;99.90;;;;;;5004334;28;20086;-68
2021/05/15 06:07:04;;;;;;;26.92;13.63;;;9.60;99.90;;;;;;4992611;28;20050;-68
2021/05/15 06:09:30;;;;;;;25.77;14.38;;;9.60;99.90;;;;;;5004206;28;20081;-68
2021/05/15 06:11:56;;;;;;;22.80;15.02;;;9.80;99.90;;;;;;5004582;28;20050;-68
2021/05/15 06:14:22;;;;;;;21.65;14.10;;;9.80;99.90;;;;;;5000570;28;20058;-68
2021/05/15 06:16:47;;;;;;;22.52;13.05;;;9.80;99.90;;;;;;4993256;28;20046;-68
2021/05/15 06:19:16;;;;;;;20.63;13.52;;;9.80;99.90;;;;;;5004213;28;20439;-68
2021/05/15 06:21:42;;;;;;;24.13;15.25;;;9.80;99.90;;;;;;5004538;28;20117;-68
2021/05/15 06:24:08;;;;;;;26.02;13.82;;;10.00;99.90;;;;;;5004034;28;20189;-68
2021/05/15 06:26:34;;;;;;;19.20;12.63;;;10.30;99.90;;;;;;5004211;28;20054;-69
2021/05/15 06:28:59;;;;;;;18.55;11.60;;;10.70;99.90;;;;;;5003896;28;20046;-69
2021/05/15 06:31:25;;;;;;;17.33;11.13;;;10.70;99.90;;;;;;5004399;28;20047;-68
2021/05/15 06:33:51;;;;;;;18.83;12.00;;;10.70;99.90;;;;;;5004192;28;20054;-69
2021/05/15 06:36:17;;;;;;;21.05;10.73;;;10.80;99.90;;;;;;5004483;28;20053;-69
2021/05/15 06:38:43;;;;;;;16.10;10.43;;;11.10;99.90;;;;;;4998966;28;20062;-69
2021/05/15 06:41:09;;;;;;;18.52;9.85;;;11.10;99.90;;;;;;5000019;28;20053;-69
2021/05/15 06:43:35;;;;;;;19.15;10.43;;;11.20;99.90;;;;;;4995948;28;20042;-69
2021/05/15 06:46:01;;;;;;;14.70;11.10;;;11.10;99.90;;;;;;5004205;28;20125;-68
2021/05/15 06:48:27;;;;;;;18.63;11.48;;;11.20;99.90;;;;;;5003180;28;20085;-68
2021/05/15 06:50:52;;;;;;;18.13;11.45;;;11.40;99.90;;;;;;4999259;28;20276;-68
2021/05/15 06:53:18;;;;;;;17.27;11.50;;;11.30;99.90;;;;;;4991559;28;20144;-68
2021/05/15 06:55:44;;;;;;;20.13;11.82;;;11.30;99.90;;;;;;5003991;28;20065;-68
2021/05/15 06:58:10;;;;;;;14.45;10.85;;;11.10;99.90;;;;;;5003629;28;20061;-68
2021/05/15 07:00:36;;;;;;;16.67;11.55;;;11.10;99.90;;;;;;5003675;28;20042;-69
2021/05/15 07:03:01;;;;;;;23.83;11.90;;;11.10;99.90;;;;;;5003304;28;20042;-69
2021/05/15 07:05:27;;;;;;;17.85;11.35;;;11.10;99.90;;;;;;5004173;28;20046;-69
2021/05/15 07:07:53;;;;;;;19.85;12.05;;;11.30;99.90;;;;;;5003623;28;20062;-69
2021/05/15 07:10:19;;;;;;;19.73;11.95;;;11.30;99.90;;;;;;4992616;28;20069;-69
2021/05/15 07:12:45;;;;;;;22.20;12.77;;;11.30;99.90;;;;;;5000384;28;20101;-69
2021/05/15 07:15:11;;;;;;;21.92;12.65;;;11.30;99.90;;;;;;5003454;28;20056;-69
2021/05/15 07:17:37;;;;;;;19.77;11.80;;;11.10;99.90;;;;;;5003559;28;20053;-68
2021/05/15 07:20:07;;;;;;;18.42;13.10;;;11.20;99.90;;;;;;4992435;28;20047;-69
2021/05/15 07:22:33;;;;;;;18.80;12.95;;;11.30;99.90;;;;;;4995648;28;20047;-69
2021/05/15 07:24:59;;;;;;;23.80;13.18;;;11.20;99.90;;;;;;5002964;28;20069;-69
2021/05/15 07:27:28;;;;;;;20.42;12.00;;;11.30;99.90;;;;;;5003612;28;20109;-69
2021/05/15 07:29:54;;;;;;;16.13;12.50;;;11.40;99.90;;;;;;4995455;28;20058;-68
2021/05/15 07:32:20;;;;;;;18.88;12.95;;;11.40;99.90;;;;;;5000520;28;20049;-69
2021/05/15 07:34:47;;;;;;;15.95;12.13;;;11.30;99.90;;;;;;5003312;28;20039;-69
2021/05/15 07:37:14;;;;;;;20.75;12.98;;;11.20;99.90;;;;;;5004002;28;20046;-68
2021/05/15 07:39:40;;;;;;;15.90;12.00;;;11.10;99.90;;;;;;5002833;28;20042;-68
2021/05/15 07:42:07;;;;;;;20.93;12.73;;;11.20;99.90;;;;;;5003468;28;20313;-68
2021/05/15 07:44:33;;;;;;;17.40;12.07;;;11.10;99.90;;;;;;5003069;28;20042;-69
2021/05/15 07:47:00;;;;;;;15.60;11.63;;;11.10;99.90;;;;;;5000976;28;20057;-69
2021/05/15 07:49:26;;;;;;;20.90;12.07;;;11.20;99.90;;;;;;5001349;28;20042;-68
2021/05/15 07:51:54;;;;;;;20.35;13.32;;;11.20;99.90;;;;;;5003138;28;20049;-69
2021/05/15 07:54:22;;;;;;;19.00;12.05;;;11.00;99.90;;;;;;5002572;28;20042;-69
2021/05/15 07:56:48;;;;;;;20.35;12.30;;;10.90;99.90;;;;;;5007017;28;20053;-68
2021/05/15 07:59:15;;;;;;;17.75;12.75;;;10.80;99.90;;;;;;5003173;28;20054;-69
2021/05/15 08:01:41;;;;;;;20.23;12.93;;;10.90;99.90;;;;;;5003493;28;20043;-68
2021/05/15 08:04:07;;;;;;;19.48;12.85;;;11.00;99.90;;;;;;5003149;28;20127;-68
2021/05/15 08:06:33;;;;;;;24.00;13.18;;;11.00;99.90;;;;;;5003082;28;20046;-68
2021/05/15 08:08:59;;;;;;;18.85;12.30;;;11.10;99.90;;;;;;5002158;28;20057;-68
2021/05/15 08:11:25;;;;;;;17.38;12.95;;;11.10;99.90;;;;;;5002642;28;20077;-68
2021/05/15 08:13:51;;;;;;;19.67;12.23;;;11.00;99.90;;;;;;5003365;28;20053;-68
2021/05/15 08:16:17;;;;;;;20.60;13.00;;;11.00;99.90;;;;;;5003421;28;20060;-68
2021/05/15 08:18:44;;;;;;;17.85;12.05;;;11.10;99.90;;;;;;5002680;28;20093;-68
2021/05/15 08:21:10;;;;;;;19.98;12.82;;;11.00;99.90;;;;;;5002888;28;20047;-68
2021/05/15 08:23:38;;;;;;;19.85;12.20;;;11.10;99.90;;;;;;5005416;28;20056;-69
2021/05/15 08:26:10;;;;;;;16.95;12.32;;;11.00;99.90;;;;;;5007141;28;20054;-68
2021/05/15 08:28:40;;;;;;;22.95;13.25;;;11.10;99.90;;;;;;5006660;28;20065;-68
2021/05/15 08:31:10;;;;;;;19.00;12.55;;;11.10;99.90;;;;;;5003408;28;20046;-68
2021/05/15 08:33:36;;;;;;;21.23;12.35;;;11.20;99.90;;;;;;5006172;28;20077;-69
2021/05/15 08:36:03;;;;;;;17.70;12.05;;;11.20;99.90;;;;;;5006136;28;20043;-69
2021/05/15 08:38:29;;;;;;;22.70;12.82;;;11.20;99.90;;;;;;5006242;28;20050;-68
2021/05/15 08:40:55;;;;;;;19.20;12.63;;;11.20;99.90;;;;;;5006367;28;20049;-68
2021/05/15 08:43:21;;;;;;;15.77;11.15;;;11.30;99.90;;;;;;5006153;28;20355;-68
2021/05/15 08:45:51;;;;;;;20.77;12.20;;;11.20;99.90;;;;;;5002552;28;20056;-69
2021/05/15 08:48:20;;;;;;;23.75;13.23;;;11.20;99.90;;;;;;5001289;28;20042;-69
2021/05/15 08:50:46;;;;;;;18.35;12.23;;;11.10;99.90;;;;;;4997496;28;20058;-68
2021/05/15 08:53:13;;;;;;;15.52;11.35;;;11.30;99.90;;;;;;5002676;28;20047;-68
2021/05/15 08:55:39;;;;;;;19.17;13.65;;;11.30;99.90;;;;;;4996279;28;20043;-68
2021/05/15 08:58:06;;;;;;;24.92;12.70;;;11.60;99.90;;;;;;5002392;28;20085;-68
2021/05/15 09:00:35;;;;;;;16.80;11.68;;;11.70;99.90;;;;;;4996297;28;20133;-69
2021/05/15 09:03:07;;;;;;;17.27;12.30;;;11.60;99.90;;;;;;5004992;28;20096;-69
2021/05/15 09:05:36;;;;;;;20.15;13.20;;;11.70;99.90;;;;;;4993334;28;20038;-69
2021/05/15 09:08:06;;;;;;;18.88;12.93;;;11.70;99.90;;;;;;5005859;28;20046;-69
2021/05/15 09:10:33;;;;;;;19.50;13.88;;;11.60;99.90;;;;;;5005159;28;20497;-68
2021/05/15 09:13:29;;;;;;;19.63;13.10;;;11.50;99.90;;;;;;5005652;28;20053;-68
2021/05/15 09:15:57;;;;;;;21.38;13.88;;;11.60;99.90;;;;;;4990763;28;20058;-68
2021/05/15 09:18:35;;;;;;;24.30;12.88;;;11.60;99.90;;;;;;4998231;28;20054;-68
2021/05/15 09:21:08;;;;;;;19.92;13.15;;;11.60;99.90;;;;;;5003438;28;20282;-68
2021/05/15 09:23:36;;;;;;;20.85;13.35;;;11.70;99.90;;;;;;5000259;28;20108;-68
2021/05/15 09:26:11;;;;;;;22.95;14.02;;;11.70;99.90;;;;;;5003185;28;20502;-68
2021/05/15 09:28:47;;;;;;;25.80;14.80;;;11.60;99.90;;;;;;4999711;28;20256;-68
2021/05/15 09:31:14;;;;;;;23.67;14.57;;;11.80;99.90;;;;;;5005072;28;20045;-68
2021/05/15 09:33:42;;;;;;;16.08;12.13;;;12.00;99.90;;;;;;5004049;28;20042;-68
2021/05/15 09:36:17;;;;;;;22.70;13.63;;;12.20;99.90;;;;;;5005681;28;20061;-69
2021/05/15 09:38:44;;;;;;;19.23;12.98;;;12.30;99.90;;;;;;5004781;28;20541;-69
2021/05/15 09:41:10;;;;;;;24.13;13.60;;;12.40;99.90;;;;;;5005140;28;20445;-68
2021/05/15 09:43:36;;;;;;;24.58;14.65;;;12.50;99.90;;;;;;5004986;28;20050;-68
2021/05/15 09:46:04;;;;;;;24.63;14.68;;;12.40;99.90;;;;;;5005190;28;20204;-69
2021/05/15 09:48:36;;;;;;;25.67;15.33;;;12.50;99.90;;;;;;4996238;28;20053;-68
2021/05/15 09:51:14;;;;;;;20.55;13.98;;;12.50;99.90;;;;;;5002675;28;20297;-68
2021/05/15 09:53:40;;;;;;;27.27;15.88;;;12.30;99.90;;;;;;4995160;28;20751;-70
2021/05/15 09:56:05;;;;;;;28.48;16.65;;;12.50;99.90;;;;;;5002543;28;20068;-69
2021/05/15 09:58:31;;;;;;;30.63;15.10;;;12.50;99.90;;;;;;5004053;28;20070;-69
2021/05/15 10:00:57;;;;;;;26.65;16.48;;;12.50;99.90;;;;;;5004884;28;20046;-69
2021/05/15 10:03:28;;;;;;;22.52;15.57;;;12.50;99.90;;;;;;5004472;28;20050;-69
2021/05/15 10:05:58;;;;;;;29.02;16.77;;;12.40;99.90;;;;;;5005227;28;20046;-68
2021/05/15 10:08:24;;;;;;;32.95;18.02;;;12.40;99.90;;;;;;5003891;28;20050;-69
2021/05/15 10:10:51;;;;;;;29.85;17.45;;;12.50;99.90;;;;;;5004453;28;20042;-69
2021/05/15 10:13:18;;;;;;;28.75;17.90;;;12.40;99.90;;;;;;5004473;28;20053;-69
2021/05/15 10:15:45;;;;;;;39.23;19.83;;;12.50;99.90;;;;;;5004894;28;20047;-69
2021/05/15 10:18:13;;;;;;;36.13;21.65;;;12.70;99.90;;;;;;5003735;28;20046;-69
2021/05/15 10:20:40;;;;;;;32.47;20.90;;;12.60;99.90;;;;;;4996475;28;20042;-68
2021/05/15 10:23:20;;;;;;;38.38;21.95;;;12.40;99.90;;;;;;5004405;28;20521;-68
2021/05/15 10:25:47;;;;;;;38.25;22.23;;;12.60;99.90;;;;;;5004084;28;20039;-68
2021/05/15 10:28:23;;;;;;;38.25;24.08;;;12.60;99.90;;;;;;5002521;28;20058;-68
2021/05/15 10:30:49;;;;;;;39.95;23.73;;;12.90;99.90;;;;;;4996600;28;20053;-68
2021/05/15 10:33:15;;;;;;;39.05;23.08;;;13.10;99.90;;;;;;5003952;28;20097;-68
2021/05/15 10:35:43;;;;;;;35.78;21.48;;;13.30;99.90;;;;;;5003829;28;20054;-68
2021/05/15 10:38:13;;;;;;;38.13;22.52;;;13.50;99.90;;;;;;5003958;28;20089;-69
2021/05/15 10:40:52;;;;;;;38.22;23.25;;;13.60;99.90;;;;;;4995245;28;20042;-69
2021/05/15 10:43:34;;;;;;;36.38;21.90;;;13.60;99.90;;;;;;5004259;28;20046;-68
2021/05/15 10:46:19;;;;;;;33.63;20.70;;;13.60;99.90;;;;;;4995695;28;20513;-68
2021/05/15 10:49:05;;;;;;;41.70;21.75;;;13.40;99.90;;;;;;5004017;28;20065;-68
2021/05/15 10:51:33;;;;;;;31.92;21.67;;;13.60;99.90;;;;;;5000856;28;20057;-68
2021/05/15 10:53:58;;;;;;;36.95;21.50;;;13.70;99.90;;;;;;5001479;28;20104;-68
2021/05/15 10:56:31;;;;;;;35.83;22.05;;;13.70;99.90;;;;;;5003712;28;20117;-68
2021/05/15 10:59:05;;;;;;;32.85;21.58;;;13.90;99.90;;;;;;5001378;28;20123;-68
2021/05/15 11:02:08;;;;;;;33.95;23.63;;;13.90;99.90;;;;;;5010038;28;20058;-68
2021/05/15 11:04:46;;;;;;;39.70;23.50;;;13.90;99.90;;;;;;5000988;28;20055;-68
2021/05/15 11:07:12;;;;;;;;;;;13.80;99.90;;;;;;5005218;28;20046;-68
2021/05/15 11:09:53;;;;;;;29.23;20.77;;;13.80;99.90;;;;;;4996928;28;19929;-68
2021/05/15 11:12:19;;;;;;;37.28;23.42;;;13.50;99.90;;;;;;5004142;28;20124;-68
2021/05/15 11:14:47;;;;;;;30.70;21.75;;;13.50;99.90;;;;;;5003669;28;20137;-69
2021/05/15 11:17:19;;;;;;;;;;;13.60;99.90;;;;;;5003720;28;20077;-69
2021/05/15 11:19:47;;;;;;;30.52;20.45;;;13.60;99.90;;;;;;5003862;28;19932;-70
2021/05/15 11:22:14;;;;;;;32.28;21.85;;;13.70;99.90;;;;;;5003562;28;20092;-68
2021/05/15 11:24:54;;;;;;;35.10;23.10;;;13.60;99.90;;;;;;5003312;28;20046;-68
2021/05/15 11:27:21;;;;;;;36.70;21.75;;;13.70;99.90;;;;;;5003594;28;20057;-68
2021/05/15 11:29:49;;;;;;;40.03;22.52;;;13.60;99.90;;;;;;5003001;28;20042;-69
2021/05/15 11:32:17;;;;;;;36.58;23.90;;;13.60;99.90;;;;;;5003257;28;20066;-68
2021/05/15 11:34:43;;;;;;;37.25;21.40;;;13.50;99.90;;;;;;5003707;28;20050;-68
2021/05/15 11:37:12;;;;;;;36.65;22.60;;;13.50;99.90;;;;;;5003156;28;20081;-68
2021/05/15 11:39:39;;;;;;;31.20;21.73;;;13.40;99.90;;;;;;5002582;28;20049;-68
2021/05/15 11:42:11;;;;;;;38.80;22.75;;;13.50;99.90;;;;;;5003254;28;20049;-68
2021/05/15 11:44:41;;;;;;;37.22;22.17;;;13.60;99.90;;;;;;5002822;28;20062;-68
2021/05/15 11:47:11;;;;;;;38.70;23.00;;;13.40;99.90;;;;;;5003576;28;20053;-68
2021/05/15 11:49:38;;;;;;;35.15;21.50;;;13.20;99.90;;;;;;5002872;28;20042;-67
2021/05/15 11:52:09;;;;;;;37.95;21.60;;;13.20;99.90;;;;;;5003245;28;20043;-68
2021/05/15 11:54:37;;;;;;;32.22;22.52;;;13.40;99.90;;;;;;5002636;28;20038;-68
2021/05/15 11:57:03;;;;;;;31.17;22.05;;;13.20;99.90;;;;;;5003742;28;20080;-68
2021/05/15 11:59:30;;;;;;;32.67;22.67;;;13.50;99.90;;;;;;5006980;28;20355;-68
2021/05/15 12:01:57;;;;;;;33.20;22.08;;;13.60;99.90;;;;;;5007187;28;20042;-68
2021/05/15 12:06:55;;;;;;;35.22;21.73;;;13.90;99.90;;;;;;5006927;28;20053;-68
2021/05/15 12:09:22;;;;;;;31.75;21.48;;;14.10;99.90;;;;;;4997696;28;20042;-69
2021/05/15 12:11:55;;;;;;;34.28;23.77;;;14.40;99.90;;;;;;5002570;28;20047;-68
2021/05/15 12:14:21;;;;;;;33.88;21.88;;;14.70;99.90;;;;;;5005703;28;20316;-69
2021/05/15 12:16:47;;;;;;;30.80;22.58;;;14.50;99.90;;;;;;5006733;28;20319;-69
2021/05/15 12:19:24;;;;;;;35.25;22.13;;;14.60;99.90;;;;;;5006613;28;20046;-69
2021/05/15 12:22:02;;;;;;;34.58;22.58;;;14.60;99.90;;;;;;5006466;28;20053;-69
2021/05/15 12:24:36;;;;;;;32.13;21.85;;;14.20;99.90;;;;;;5013721;28;20042;-69
2021/05/15 12:27:10;;;;;;;31.75;22.95;;;14.00;99.90;;;;;;4996147;28;20047;-68
2021/05/15 12:29:36;;;;;;;31.92;21.75;;;13.90;99.90;;;;;;4999270;28;20115;-68
2021/05/15 12:32:02;;;;;;;33.33;23.17;;;13.70;99.90;;;;;;4988566;28;20059;-68
2021/05/15 12:34:28;;;;;;;30.77;22.80;;;13.70;99.90;;;;;;5006294;28;20046;-68
2021/05/15 12:36:54;;;;;;;31.67;23.58;;;13.70;99.90;;;;;;5006309;28;20057;-68
2021/05/15 12:39:20;;;;;;;32.40;22.17;;;13.90;99.90;;;;;;5005698;28;20042;-68
2021/05/15 12:41:46;;;;;;;37.67;22.52;;;13.80;99.90;;;;;;5006402;28;20041;-68